Time;durP1;ratioP1;P1;durP2;ratioP2;P2;SDS_P1;SDS_P2;PMS_P1;PMS_P2;Temp;Humidity;BMP_temperature;BMP_pressure;BME280_temperature;BME280_humidity;BME280_pressure;Samples;Min_cycle;Max_cycle;Signal;HPM_P1;HPM_P2
2021/06/21 00:00:57;;;;;;;1.03;0.93;;;21.70;99.90;;;;;;5074089;28;20427;-76
2021/06/21 00:03:23;;;;;;;1.10;0.90;;;21.70;99.90;;;;;;5073697;28;20419;-77
2021/06/21 00:05:49;;;;;;;1.43;1.30;;;21.70;99.90;;;;;;5070972;28;20178;-78
2021/06/21 00:08:15;;;;;;;0.80;0.80;;;21.70;99.90;;;;;;5075367;28;20194;-76
2021/06/21 00:10:41;;;;;;;1.77;1.67;;;21.70;99.90;;;;;;5071094;28;20456;-77
2021/06/21 00:13:07;;;;;;;1.30;1.07;;;21.70;99.90;;;;;;5074832;28;20476;-78
2021/06/21 00:15:32;;;;;;;1.00;0.90;;;21.70;99.90;;;;;;5080058;28;21433;-76
2021/06/21 00:17:58;;;;;;;1.10;0.80;;;21.70;99.90;;;;;;5073436;28;20237;-76
2021/06/21 00:20:24;;;;;;;1.00;0.70;;;21.60;99.90;;;;;;5075410;28;20184;-76
2021/06/21 00:22:52;;;;;;;0.70;0.50;;;21.60;99.90;;;;;;5087002;28;20181;-78
2021/06/21 00:25:18;;;;;;;0.77;0.70;;;21.60;99.90;;;;;;5072243;28;20959;-77
2021/06/21 00:27:44;;;;;;;1.33;0.80;;;21.60;99.90;;;;;;5072421;28;20528;-78
2021/06/21 00:30:13;;;;;;;1.00;0.60;;;21.60;99.90;;;;;;5073033;28;20550;-78
2021/06/21 00:32:40;;;;;;;1.07;0.97;;;21.50;99.90;;;;;;5075455;28;20422;-77
2021/06/21 00:35:06;;;;;;;1.10;0.83;;;21.50;99.90;;;;;;5079658;28;20502;-79
2021/06/21 00:37:32;;;;;;;0.90;0.70;;;21.50;99.90;;;;;;5074485;28;20539;-78
2021/06/21 00:39:58;;;;;;;1.20;1.10;;;21.50;99.90;;;;;;5074371;28;20455;-78
2021/06/21 00:42:24;;;;;;;1.73;0.80;;;21.50;99.90;;;;;;5074668;28;20192;-76
2021/06/21 00:44:49;;;;;;;0.80;0.70;;;21.50;99.90;;;;;;5077222;28;20201;-76
2021/06/21 00:47:15;;;;;;;0.80;0.70;;;21.40;99.90;;;;;;5074231;28;20858;-77
2021/06/21 00:49:41;;;;;;;1.03;0.93;;;21.40;99.90;;;;;;5072750;28;20224;-76
2021/06/21 00:52:11;;;;;;;1.20;1.10;;;21.40;99.90;;;;;;5075405;28;20182;-76
2021/06/21 00:54:38;;;;;;;1.10;1.00;;;21.40;99.90;;;;;;5072623;28;20447;-76
2021/06/21 00:57:04;;;;;;;2.20;1.20;;;21.50;99.90;;;;;;5069790;28;20467;-77
2021/06/21 00:59:30;;;;;;;1.53;0.70;;;21.50;99.90;;;;;;5074848;28;20419;-76
2021/06/21 01:01:55;;;;;;;1.13;1.03;;;21.40;99.90;;;;;;5077622;28;20480;-76
2021/06/21 01:04:21;;;;;;;1.17;0.90;;;21.50;99.90;;;;;;5080677;28;20238;-76
2021/06/21 01:06:47;;;;;;;0.80;0.60;;;21.60;99.90;;;;;;5090923;28;20185;-76
2021/06/21 01:09:13;;;;;;;2.37;1.10;;;21.60;99.90;;;;;;5076253;28;20233;-76
2021/06/21 01:12:04;;;;;;;2.17;1.03;;;21.60;99.90;;;;;;5071361;28;20228;-76
2021/06/21 01:14:37;;;;;;;1.03;0.93;;;21.60;99.90;;;;;;5072770;28;20416;-76
2021/06/21 01:17:27;;;;;;;0.77;0.60;;;21.70;99.90;;;;;;5076085;28;20515;-77
2021/06/21 01:20:15;;;;;;;0.80;0.70;;;21.70;99.90;;;;;;5072714;28;20416;-77
2021/06/21 01:23:12;;;;;;;1.17;0.80;;;21.70;99.90;;;;;;5069166;28;20423;-76
2021/06/21 01:25:40;;;;;;;1.10;1.00;;;21.70;99.90;;;;;;5067124;28;20434;-76
2021/06/21 01:28:43;;;;;;;1.97;1.33;;;21.70;99.90;;;;;;5071646;28;20534;-76
2021/06/21 01:31:12;;;;;;;4.53;1.00;;;21.70;99.90;;;;;;5071067;28;20489;-76
2021/06/21 01:33:39;;;;;;;0.80;0.70;;;21.70;99.90;;;;;;5073461;28;20456;-77
2021/06/21 01:36:09;;;;;;;1.37;0.80;;;21.70;99.90;;;;;;5081139;28;20450;-76
2021/06/21 01:38:39;;;;;;;0.90;0.60;;;21.70;99.90;;;;;;5079995;28;20475;-77
2021/06/21 01:41:08;;;;;;;1.37;1.17;;;21.70;99.90;;;;;;5090922;28;20442;-77
2021/06/21 01:43:39;;;;;;;1.53;1.33;;;21.60;99.90;;;;;;5082016;28;20511;-76
2021/06/21 01:46:08;;;;;;;1.20;1.10;;;21.60;99.90;;;;;;5079043;28;20834;-77
2021/06/21 01:48:37;;;;;;;1.33;1.10;;;21.50;99.90;;;;;;5081404;28;20496;-77
2021/06/21 01:51:04;;;;;;;1.83;0.97;;;21.50;99.90;;;;;;5073980;28;20427;-77
2021/06/21 01:53:33;;;;;;;1.93;1.53;;;21.50;99.90;;;;;;5085509;28;20419;-78
2021/06/21 01:56:02;;;;;;;1.10;1.00;;;21.50;99.90;;;;;;5093205;28;20416;-77
2021/06/21 01:58:30;;;;;;;0.77;0.70;;;21.50;99.90;;;;;;5090503;28;20522;-78
2021/06/21 02:00:57;;;;;;;1.90;1.63;;;21.50;99.90;;;;;;5086264;28;20424;-77
2021/06/21 02:03:24;;;;;;;1.13;1.03;;;21.50;99.90;;;;;;5075298;28;20507;-78
2021/06/21 02:05:51;;;;;;;1.20;1.10;;;21.50;99.90;;;;;;5087422;28;20419;-78
2021/06/21 02:08:19;;;;;;;1.70;1.60;;;21.40;99.90;;;;;;5078655;28;20440;-77
2021/06/21 02:10:48;;;;;;;1.63;1.53;;;21.40;99.90;;;;;;5086087;28;20461;-78
2021/06/21 02:13:15;;;;;;;2.40;1.27;;;21.40;99.90;;;;;;5087955;28;20470;-78
2021/06/21 02:15:42;;;;;;;1.57;1.07;;;21.40;99.90;;;;;;5093421;28;20510;-78
2021/06/21 02:18:08;;;;;;;0.90;0.80;;;21.50;99.90;;;;;;5086945;28;20471;-78
2021/06/21 02:20:35;;;;;;;1.03;0.93;;;21.50;99.90;;;;;;5087700;28;21006;-78
2021/06/21 02:23:01;;;;;;;1.00;0.90;;;21.40;99.90;;;;;;5091146;28;20956;-78
2021/06/21 02:25:27;;;;;;;1.10;1.00;;;21.40;99.90;;;;;;5095039;28;20429;-77
2021/06/21 02:27:54;;;;;;;1.33;1.23;;;21.40;99.90;;;;;;5087081;28;20456;-77
2021/06/21 02:30:20;;;;;;;1.73;1.03;;;21.40;99.90;;;;;;5072635;28;20491;-77
2021/06/21 02:32:47;;;;;;;1.27;1.17;;;21.30;99.90;;;;;;5084154;28;20935;-77
2021/06/21 02:35:14;;;;;;;1.33;1.10;;;21.20;99.90;;;;;;5080202;28;20875;-77
2021/06/21 02:37:40;;;;;;;2.50;1.07;;;21.20;99.90;;;;;;5090886;28;21277;-77
2021/06/21 02:40:07;;;;;;;1.30;1.20;;;21.20;99.90;;;;;;5098848;28;20432;-77
2021/06/21 02:42:33;;;;;;;1.40;1.27;;;21.10;99.90;;;;;;5094056;28;20174;-76
2021/06/21 02:44:59;;;;;;;3.40;3.20;;;21.10;99.90;;;;;;5077539;28;20984;-77
2021/06/21 02:47:25;;;;;;;1.83;1.20;;;21.00;99.90;;;;;;5083982;28;20193;-77
2021/06/21 02:49:51;;;;;;;4.00;1.67;;;21.10;99.90;;;;;;5072956;28;20210;-77
2021/06/21 02:52:33;;;;;;;1.23;1.13;;;21.00;99.90;;;;;;5089823;28;20260;-77
2021/06/21 02:55:23;;;;;;;2.70;1.30;;;21.00;99.90;;;;;;5076130;28;20519;-77
2021/06/21 02:58:09;;;;;;;1.90;1.53;;;21.00;99.90;;;;;;5074248;28;20820;-77
2021/06/21 03:00:38;;;;;;;1.33;1.23;;;21.00;99.90;;;;;;5090449;28;20455;-77
2021/06/21 03:03:07;;;;;;;2.03;1.83;;;21.00;99.90;;;;;;5080498;28;20460;-77
2021/06/21 03:05:33;;;;;;;2.60;2.30;;;21.00;99.90;;;;;;5088030;28;20531;-78
2021/06/21 03:08:01;;;;;;;3.37;1.40;;;21.00;99.90;;;;;;5087286;28;20573;-78
2021/06/21 03:10:28;;;;;;;1.00;0.90;;;21.00;99.90;;;;;;5074716;28;20206;-78
2021/06/21 03:12:55;;;;;;;3.63;1.97;;;21.00;99.90;;;;;;5087011;28;20431;-78
2021/06/21 03:15:22;;;;;;;1.50;1.30;;;21.00;99.90;;;;;;5096163;28;20431;-78
2021/06/21 03:17:50;;;;;;;3.70;1.00;;;21.00;99.90;;;;;;5090510;28;20477;-78
2021/06/21 03:20:18;;;;;;;3.70;3.17;;;21.00;99.90;;;;;;5074825;28;20434;-78
2021/06/21 03:22:44;;;;;;;1.57;1.00;;;21.00;99.90;;;;;;5072325;28;20440;-78
2021/06/21 03:25:10;;;;;;;1.10;1.00;;;21.10;99.90;;;;;;5080223;28;20434;-78
2021/06/21 03:27:37;;;;;;;1.40;1.30;;;21.10;99.90;;;;;;5097399;28;20837;-77
2021/06/21 03:30:07;;;;;;;2.10;1.33;;;21.20;99.90;;;;;;5094752;28;20542;-77
2021/06/21 03:32:35;;;;;;;1.20;1.10;;;21.20;99.90;;;;;;5096506;28;20428;-78
2021/06/21 03:35:04;;;;;;;3.03;2.83;;;21.20;99.90;;;;;;5092564;28;20423;-77
2021/06/21 03:37:30;;;;;;;1.73;1.33;;;21.20;99.90;;;;;;5077812;28;20450;-77
2021/06/21 03:39:56;;;;;;;1.53;1.43;;;21.20;99.90;;;;;;5075117;28;20514;-77
2021/06/21 03:42:22;;;;;;;1.33;1.10;;;21.20;99.90;;;;;;5083214;28;20227;-78
2021/06/21 03:44:49;;;;;;;1.67;1.30;;;21.20;99.90;;;;;;5080899;28;20959;-78
2021/06/21 03:47:16;;;;;;;2.90;1.83;;;21.20;99.90;;;;;;5096195;28;20201;-78
2021/06/21 03:49:44;;;;;;;3.70;3.23;;;21.10;99.90;;;;;;5081772;28;20960;-78
2021/06/21 03:52:09;;;;;;;0.97;0.87;;;21.00;99.90;;;;;;5086531;28;20517;-77
2021/06/21 03:54:35;;;;;;;2.23;2.03;;;21.10;99.90;;;;;;5084638;28;20428;-76
2021/06/21 03:57:02;;;;;;;1.33;1.20;;;21.00;99.90;;;;;;5083293;28;20255;-78
2021/06/21 03:59:28;;;;;;;2.70;1.30;;;20.90;99.90;;;;;;5092812;28;20255;-77
2021/06/21 04:01:54;;;;;;;0.93;0.80;;;20.80;99.90;;;;;;5078284;28;20432;-77
2021/06/21 04:04:20;;;;;;;1.20;1.10;;;20.80;99.90;;;;;;5082575;28;20193;-77
2021/06/21 04:06:45;;;;;;;2.47;2.27;;;20.80;99.90;;;;;;5081238;28;20455;-76
2021/06/21 04:09:11;;;;;;;1.67;1.23;;;20.90;99.90;;;;;;5080301;28;20209;-78
2021/06/21 04:11:37;;;;;;;1.33;1.20;;;20.80;99.90;;;;;;5091276;28;20177;-77
2021/06/21 04:14:03;;;;;;;2.33;1.70;;;20.90;99.90;;;;;;5095391;28;20185;-77
2021/06/21 04:16:29;;;;;;;2.00;1.30;;;20.90;99.90;;;;;;5093524;28;20454;-77
2021/06/21 04:18:54;;;;;;;8.03;1.77;;;20.90;99.90;;;;;;5083738;28;20200;-77
2021/06/21 04:21:23;;;;;;;1.80;1.30;;;20.80;99.90;;;;;;5086295;28;20177;-77
2021/06/21 04:23:48;;;;;;;1.73;1.63;;;20.80;99.90;;;;;;5093319;28;20274;-77
2021/06/21 04:26:14;;;;;;;1.87;1.77;;;20.90;99.90;;;;;;5092459;28;20427;-77
2021/06/21 04:28:40;;;;;;;2.00;1.90;;;20.70;99.90;;;;;;5082408;28;20255;-77
2021/06/21 04:31:05;;;;;;;1.57;1.23;;;20.80;99.90;;;;;;5076481;28;20231;-77
2021/06/21 04:33:31;;;;;;;2.30;1.60;;;20.80;99.90;;;;;;5074038;28;20186;-77
2021/06/21 04:35:57;;;;;;;2.50;2.00;;;20.70;99.90;;;;;;5073135;28;20178;-76
2021/06/21 04:38:23;;;;;;;1.60;1.50;;;20.60;99.90;;;;;;5082956;28;20198;-76
2021/06/21 04:40:49;;;;;;;2.73;2.50;;;20.70;99.90;;;;;;5087073;28;20182;-76
2021/06/21 04:43:15;;;;;;;3.93;3.00;;;20.60;99.90;;;;;;5079379;28;20432;-76
2021/06/21 04:45:41;;;;;;;2.27;1.73;;;20.60;99.90;;;;;;5085715;28;20436;-76
2021/06/21 04:48:07;;;;;;;6.20;5.17;;;20.70;99.90;;;;;;5074261;28;20258;-76
2021/06/21 04:50:35;;;;;;;2.93;1.47;;;20.60;99.90;;;;;;5074035;28;20470;-76
2021/06/21 04:53:01;;;;;;;2.03;1.63;;;20.70;99.90;;;;;;5088733;28;20455;-77
2021/06/21 04:55:26;;;;;;;8.60;3.33;;;20.70;99.90;;;;;;5089868;28;20470;-75
2021/06/21 04:57:52;;;;;;;3.50;3.20;;;20.50;99.90;;;;;;5091478;28;20721;-76
2021/06/21 05:00:20;;;;;;;7.17;2.87;;;20.50;99.90;;;;;;5077861;28;20196;-75
2021/06/21 05:02:47;;;;;;;2.30;2.07;;;20.50;99.90;;;;;;5082439;28;20192;-75
2021/06/21 05:05:13;;;;;;;4.60;2.10;;;20.50;99.90;;;;;;5087324;28;20431;-75
2021/06/21 05:07:40;;;;;;;4.40;2.87;;;20.50;99.90;;;;;;5083388;28;20446;-76
2021/06/21 05:10:08;;;;;;;3.53;3.23;;;20.50;99.90;;;;;;5079754;28;20455;-75
2021/06/21 05:12:33;;;;;;;2.23;2.00;;;20.60;99.90;;;;;;5083576;28;20514;-75
2021/06/21 05:14:59;;;;;;;2.10;2.00;;;20.60;99.90;;;;;;5089490;28;20546;-75
2021/06/21 05:17:25;;;;;;;3.33;3.03;;;20.50;99.90;;;;;;5093530;28;20560;-76
2021/06/21 05:19:51;;;;;;;2.20;1.60;;;20.60;99.90;;;;;;5080518;28;20181;-75
2021/06/21 05:22:16;;;;;;;3.00;2.80;;;20.60;99.90;;;;;;5093613;28;20185;-76
2021/06/21 05:24:42;;;;;;;1.60;1.50;;;20.80;99.90;;;;;;5089494;28;20178;-75
2021/06/21 05:27:07;;;;;;;1.10;1.00;;;20.80;99.90;;;;;;5090404;28;20258;-76
2021/06/21 05:29:33;;;;;;;1.83;1.73;;;20.90;99.90;;;;;;5074907;28;20205;-75
2021/06/21 05:32:02;;;;;;;2.93;2.13;;;20.90;99.90;;;;;;5079956;28;20173;-76
2021/06/21 05:34:29;;;;;;;2.80;0.90;;;20.90;99.90;;;;;;5094688;28;20231;-75
2021/06/21 05:36:54;;;;;;;1.53;1.43;;;21.00;99.90;;;;;;5094486;28;20539;-75
2021/06/21 05:39:20;;;;;;;1.93;1.83;;;21.00;99.90;;;;;;5078466;28;20428;-75
2021/06/21 05:41:46;;;;;;;6.77;3.47;;;21.10;99.90;;;;;;5078692;28;20181;-76
2021/06/21 05:44:12;;;;;;;2.90;1.43;;;21.00;99.90;;;;;;5077888;28;20247;-75
2021/06/21 05:46:38;;;;;;;1.40;1.20;;;21.00;99.90;;;;;;5092356;28;20759;-75
2021/06/21 05:49:03;;;;;;;14.70;4.47;;;21.00;99.90;;;;;;5078717;28;20456;-75
2021/06/21 05:51:29;;;;;;;2.20;2.00;;;21.00;99.90;;;;;;5088545;28;20463;-75
2021/06/21 05:53:54;;;;;;;2.10;1.80;;;20.90;99.90;;;;;;5081435;28;20651;-76
2021/06/21 05:56:20;;;;;;;3.67;3.37;;;21.00;99.90;;;;;;5086055;28;20173;-75
2021/06/21 05:58:46;;;;;;;3.10;2.00;;;21.00;99.90;;;;;;5084760;28;20197;-76
2021/06/21 06:01:11;;;;;;;2.50;2.30;;;21.00;99.90;;;;;;5084591;28;20193;-75
2021/06/21 06:03:37;;;;;;;4.73;1.53;;;21.00;99.90;;;;;;5089557;28;20216;-76
2021/06/21 06:06:02;;;;;;;1.70;1.33;;;20.90;99.90;;;;;;5073987;28;20186;-76
2021/06/21 06:08:28;;;;;;;2.60;1.80;;;21.10;99.90;;;;;;5082462;28;20210;-75
2021/06/21 06:10:54;;;;;;;2.50;2.30;;;21.10;99.90;;;;;;5083690;28;20463;-75
2021/06/21 06:13:20;;;;;;;1.43;1.33;;;21.10;99.90;;;;;;5083918;28;20235;-76
2021/06/21 06:15:46;;;;;;;2.90;2.40;;;21.10;99.90;;;;;;5078658;28;20435;-76
2021/06/21 06:18:11;;;;;;;1.87;1.77;;;21.20;99.90;;;;;;5093212;28;20204;-76
2021/06/21 06:20:37;;;;;;;3.17;1.90;;;21.30;99.90;;;;;;5093980;28;20261;-76
2021/06/21 06:23:04;;;;;;;3.20;2.93;;;21.30;99.90;;;;;;5075193;28;20182;-76
2021/06/21 06:25:31;;;;;;;2.20;1.50;;;21.30;99.90;;;;;;5078015;28;20227;-76
2021/06/21 06:27:58;;;;;;;1.60;1.50;;;21.40;99.90;;;;;;5087769;28;20439;-76
2021/06/21 06:30:24;;;;;;;2.33;1.97;;;21.30;99.90;;;;;;5077563;28;20502;-76
2021/06/21 06:32:50;;;;;;;2.20;2.00;;;21.30;99.90;;;;;;5082742;28;20933;-76
2021/06/21 06:35:16;;;;;;;3.53;2.10;;;21.50;99.90;;;;;;5080198;28;20484;-76
2021/06/21 06:37:42;;;;;;;1.40;1.30;;;21.40;99.90;;;;;;5081589;28;20193;-76
2021/06/21 06:40:08;;;;;;;1.20;1.10;;;21.40;99.90;;;;;;5087548;28;20412;-76
2021/06/21 06:42:34;;;;;;;1.57;1.37;;;21.40;99.90;;;;;;5093706;28;20200;-77
2021/06/21 06:44:59;;;;;;;1.23;1.07;;;21.30;99.90;;;;;;5090064;28;20407;-76
2021/06/21 06:47:25;;;;;;;3.03;1.43;;;21.40;99.90;;;;;;5082778;28;20271;-76
2021/06/21 06:49:50;;;;;;;0.80;0.70;;;21.30;99.90;;;;;;5075223;28;20208;-77
2021/06/21 06:52:19;;;;;;;0.80;0.60;;;21.40;99.90;;;;;;5077505;28;20512;-77
2021/06/21 06:57:29;;;;;;;1.13;0.70;;;21.50;99.90;;;;;;5073544;28;20467;-77
2021/06/21 06:59:54;;;;;;;0.80;0.80;;;21.30;99.90;;;;;;5079446;28;20428;-76
2021/06/21 07:02:23;;;;;;;0.93;0.90;;;21.40;99.90;;;;;;5084233;28;20178;-76
2021/06/21 07:04:49;;;;;;;0.70;0.50;;;21.40;99.90;;;;;;5079901;28;20189;-77
2021/06/21 07:07:17;;;;;;;1.10;1.00;;;21.60;99.90;;;;;;5087263;28;20447;-77
2021/06/21 07:09:43;;;;;;;0.80;0.60;;;21.70;99.90;;;;;;5093256;28;20516;-77
2021/06/21 07:12:09;;;;;;;1.80;0.90;;;21.80;99.90;;;;;;5091767;28;20427;-77
2021/06/21 07:14:34;;;;;;;1.00;0.60;;;22.00;99.90;;;;;;5081291;28;20167;-77
2021/06/21 07:17:00;;;;;;;1.10;1.00;;;22.10;99.90;;;;;;5073037;28;20493;-77
2021/06/21 07:19:26;;;;;;;1.07;0.97;;;22.20;99.90;;;;;;5078685;28;20181;-77
2021/06/21 07:21:52;;;;;;;6.13;2.50;;;22.30;99.90;;;;;;5072029;28;20639;-77
2021/06/21 07:24:19;;;;;;;3.90;3.53;;;22.30;99.90;;;;;;5071833;28;20540;-77
2021/06/21 07:26:46;;;;;;;3.20;2.10;;;22.20;99.90;;;;;;5075585;28;20497;-76
2021/06/21 07:29:11;;;;;;;5.50;2.63;;;22.10;99.90;;;;;;5088377;28;20455;-77
2021/06/21 07:31:38;;;;;;;3.83;2.20;;;21.80;99.90;;;;;;5073446;28;20481;-77
2021/06/21 07:34:04;;;;;;;1.60;1.50;;;21.60;99.90;;;;;;5087258;28;20178;-77
2021/06/21 07:36:30;;;;;;;2.80;2.60;;;21.50;99.90;;;;;;5084032;28;20428;-77
2021/06/21 07:38:55;;;;;;;2.43;2.27;;;21.30;99.90;;;;;;5087672;28;20424;-77
2021/06/21 07:41:21;;;;;;;3.00;2.80;;;21.30;99.90;;;;;;5078666;28;20435;-77
2021/06/21 07:43:49;;;;;;;3.70;2.23;;;21.20;99.90;;;;;;5079037;28;20252;-77
2021/06/21 07:46:14;;;;;;;4.93;1.60;;;21.10;99.90;;;;;;5080445;28;20261;-76
2021/06/21 07:48:43;;;;;;;3.80;2.93;;;21.20;99.90;;;;;;5079007;28;20539;-77
2021/06/21 07:51:10;;;;;;;1.80;1.30;;;21.20;99.90;;;;;;5073959;28;20201;-77
2021/06/21 07:53:37;;;;;;;2.37;1.97;;;21.10;99.90;;;;;;5071400;28;20448;-77
2021/06/21 07:56:07;;;;;;;2.93;2.70;;;21.00;99.90;;;;;;5071588;28;20428;-78
2021/06/21 07:58:34;;;;;;;2.87;2.57;;;21.00;99.90;;;;;;5075290;28;20454;-77
2021/06/21 08:01:00;;;;;;;2.50;2.13;;;21.00;99.90;;;;;;5089002;28;20423;-76
2021/06/21 08:03:25;;;;;;;2.17;1.87;;;20.90;99.90;;;;;;5075298;28;20526;-76
2021/06/21 08:05:51;;;;;;;2.50;2.30;;;20.80;99.90;;;;;;5082794;28;20182;-77
2021/06/21 08:08:18;;;;;;;1.97;1.47;;;20.60;99.90;;;;;;5073925;28;20208;-77
2021/06/21 08:10:44;;;;;;;2.70;2.23;;;20.60;99.90;;;;;;5084101;28;20467;-76
2021/06/21 08:13:09;;;;;;;1.37;1.07;;;20.50;99.90;;;;;;5072123;28;20455;-76
2021/06/21 08:15:35;;;;;;;1.90;1.80;;;20.50;99.90;;;;;;5072762;28;20816;-77
2021/06/21 08:18:03;;;;;;;4.33;2.17;;;20.50;99.90;;;;;;5084163;28;20208;-77
2021/06/21 08:20:29;;;;;;;10.77;2.50;;;20.40;99.90;;;;;;5079547;28;20520;-77
2021/06/21 08:22:55;;;;;;;0.80;0.77;;;20.40;99.90;;;;;;5073764;28;20436;-77
2021/06/21 08:25:20;;;;;;;1.13;0.90;;;20.30;99.90;;;;;;5082229;28;20178;-77
2021/06/21 08:27:46;;;;;;;1.00;0.80;;;20.20;99.90;;;;;;5085310;28;20285;-77
2021/06/21 08:30:12;;;;;;;2.17;1.33;;;20.10;99.90;;;;;;5072823;28;20189;-77
2021/06/21 08:32:39;;;;;;;1.47;1.37;;;20.00;99.90;;;;;;5077471;28;20196;-77
2021/06/21 08:35:06;;;;;;;1.10;0.83;;;20.00;99.90;;;;;;5089806;28;20431;-77
2021/06/21 08:37:32;;;;;;;2.10;0.90;;;19.80;99.90;;;;;;5085411;28;20448;-77
2021/06/21 08:39:57;;;;;;;2.37;1.23;;;19.70;99.90;;;;;;5075534;28;20515;-77
2021/06/21 08:42:23;;;;;;;0.80;0.60;;;19.70;99.90;;;;;;5073733;28;20584;-77
2021/06/21 08:44:49;;;;;;;1.20;1.10;;;19.70;99.90;;;;;;5084695;28;20193;-77
2021/06/21 08:47:18;;;;;;;1.00;0.93;;;19.50;99.90;;;;;;5071885;28;20190;-76
2021/06/21 08:49:47;;;;;;;0.70;0.60;;;19.40;99.90;;;;;;5078176;28;20467;-77
2021/06/21 08:52:14;;;;;;;0.83;0.73;;;19.20;99.90;;;;;;5070683;28;20497;-76
2021/06/21 08:54:40;;;;;;;2.37;2.27;;;19.10;99.90;;;;;;5070566;28;20425;-77
2021/06/21 08:57:07;;;;;;;0.90;0.60;;;19.00;99.90;;;;;;5086419;28;20447;-77
2021/06/21 08:59:32;;;;;;;4.27;3.23;;;19.00;99.90;;;;;;5091328;28;20477;-78
2021/06/21 09:01:58;;;;;;;1.23;0.80;;;19.00;99.90;;;;;;5089336;28;20427;-77
2021/06/21 09:04:25;;;;;;;1.23;1.13;;;19.00;99.90;;;;;;5091578;28;20226;-77
2021/06/21 09:06:50;;;;;;;0.70;0.50;;;19.00;99.90;;;;;;5092577;28;20201;-78
2021/06/21 09:09:16;;;;;;;1.43;0.70;;;19.00;99.90;;;;;;5073079;28;20463;-77
2021/06/21 09:11:45;;;;;;;0.70;0.60;;;18.90;99.90;;;;;;5077607;28;20261;-78
2021/06/21 09:14:26;;;;;;;0.70;0.50;;;19.00;99.90;;;;;;5083032;28;20174;-77
2021/06/21 09:16:54;;;;;;;1.20;0.83;;;18.90;99.90;;;;;;5074861;28;20439;-77
2021/06/21 09:19:20;;;;;;;0.80;0.60;;;18.80;99.90;;;;;;5081377;28;20444;-77
2021/06/21 09:21:46;;;;;;;0.70;0.60;;;18.80;99.90;;;;;;5083226;28;20962;-77
2021/06/21 09:24:29;;;;;;;0.70;0.50;;;18.80;99.90;;;;;;5087307;28;20415;-77
2021/06/21 09:27:00;;;;;;;0.70;0.60;;;18.90;99.90;;;;;;5087183;28;20211;-77
2021/06/21 09:29:35;;;;;;;0.80;0.60;;;19.10;99.90;;;;;;5072613;28;20480;-77
2021/06/21 09:32:00;;;;;;;0.80;0.80;;;19.20;99.90;;;;;;5091342;28;20444;-78
2021/06/21 09:34:27;;;;;;;0.70;0.50;;;19.40;99.90;;;;;;5087569;28;20963;-78
2021/06/21 09:36:54;;;;;;;0.70;0.60;;;19.60;99.90;;;;;;5072720;28;20611;-78
2021/06/21 09:39:25;;;;;;;0.80;0.60;;;19.80;99.90;;;;;;5077255;28;20424;-78
2021/06/21 09:42:12;;;;;;;0.70;0.50;;;19.80;99.90;;;;;;5086749;28;20435;-78
2021/06/21 09:44:42;;;;;;;0.70;0.50;;;19.80;99.90;;;;;;5075882;28;20420;-78
2021/06/21 09:47:20;;;;;;;0.70;0.60;;;20.00;99.90;;;;;;5082181;28;20447;-79
2021/06/21 09:50:14;;;;;;;0.90;0.80;;;20.20;99.90;;;;;;5093880;28;20470;-78
2021/06/21 09:52:42;;;;;;;0.80;0.60;;;20.80;99.90;;;;;;5079880;28;20439;-77
2021/06/21 09:55:16;;;;;;;0.70;0.50;;;21.50;99.90;;;;;;5079790;28;20511;-76
2021/06/21 09:57:42;;;;;;;0.70;0.50;;;21.80;99.90;;;;;;5090681;28;20447;-77
2021/06/21 10:00:10;;;;;;;0.80;0.53;;;22.00;99.90;;;;;;5078347;28;20433;-77
2021/06/21 10:02:36;;;;;;;0.70;0.50;;;22.00;99.90;;;;;;5089434;28;20553;-76
2021/06/21 10:05:02;;;;;;;0.80;0.80;;;21.80;99.90;;;;;;5075972;28;20432;-77
2021/06/21 10:07:37;;;;;;;0.80;0.80;;;21.70;99.90;;;;;;5078717;28;20205;-76
2021/06/21 10:10:11;;;;;;;0.80;0.70;;;21.70;99.90;;;;;;5087501;28;20451;-76
2021/06/21 10:12:38;;;;;;;1.10;0.60;;;21.50;99.90;;;;;;5076711;28;20951;-77
2021/06/21 10:15:06;;;;;;;0.70;0.50;;;21.30;99.90;;;;;;5090947;28;20422;-77
2021/06/21 10:17:31;;;;;;;0.70;0.50;;;21.30;99.90;;;;;;5093790;28;20435;-77
2021/06/21 10:19:57;;;;;;;0.80;0.57;;;21.20;99.90;;;;;;5086182;28;20431;-76
2021/06/21 10:22:25;;;;;;;0.80;0.60;;;21.20;99.90;;;;;;5081975;28;20686;-76
2021/06/21 10:24:56;;;;;;;0.70;0.50;;;21.10;99.90;;;;;;5086496;28;20169;-75
2021/06/21 10:27:24;;;;;;;0.70;0.50;;;21.00;99.90;;;;;;5082364;28;20452;-76
2021/06/21 10:29:50;;;;;;;0.80;0.60;;;20.90;99.90;;;;;;5073697;28;20456;-76
2021/06/21 10:32:17;;;;;;;0.80;0.60;;;20.90;99.90;;;;;;5076429;28;20428;-76
2021/06/21 10:34:46;;;;;;;0.70;0.50;;;20.80;99.90;;;;;;5087438;28;20470;-76
2021/06/21 10:37:21;;;;;;;0.80;0.60;;;20.70;99.90;;;;;;5083572;28;20455;-76
2021/06/21 10:39:54;;;;;;;0.70;0.50;;;20.60;99.90;;;;;;5084874;28;20426;-76
2021/06/21 10:42:22;;;;;;;0.70;0.50;;;20.50;99.90;;;;;;5074859;28;20424;-76
2021/06/21 10:44:58;;;;;;;0.70;0.50;;;20.40;99.90;;;;;;5088120;28;20992;-76
2021/06/21 10:47:29;;;;;;;0.70;0.50;;;20.40;99.90;;;;;;5085204;28;20452;-76
2021/06/21 10:50:07;;;;;;;0.70;0.50;;;20.40;99.90;;;;;;5072677;28;20543;-76
2021/06/21 10:52:36;;;;;;;0.70;0.50;;;20.30;99.90;;;;;;5079466;28;20442;-76
2021/06/21 10:55:27;;;;;;;0.70;0.50;;;20.40;99.90;;;;;;5079239;28;20784;-76
2021/06/21 10:57:57;;;;;;;0.70;0.60;;;20.40;99.90;;;;;;5081682;28;20448;-76
2021/06/21 11:00:32;;;;;;;0.70;0.50;;;20.30;99.90;;;;;;5085975;28;20879;-76
2021/06/21 11:02:58;;;;;;;0.70;0.60;;;20.30;99.90;;;;;;5076399;28;20431;-76
2021/06/21 11:05:36;;;;;;;0.80;0.60;;;20.20;99.90;;;;;;5072502;28;21098;-75
2021/06/21 11:08:14;;;;;;;0.70;0.50;;;20.20;99.90;;;;;;5082327;28;20224;-76
2021/06/21 11:10:40;;;;;;;0.80;0.70;;;20.20;99.90;;;;;;5089678;28;20493;-78
2021/06/21 11:13:33;;;;;;;0.73;0.57;;;20.30;99.90;;;;;;5076620;28;20960;-79
2021/06/21 11:16:14;;;;;;;0.80;0.60;;;20.40;99.90;;;;;;5072841;28;20178;-78
2021/06/21 11:18:40;;;;;;;0.70;0.50;;;20.30;99.90;;;;;;5093996;28;20812;-78
2021/06/21 11:21:13;;;;;;;0.70;0.50;;;20.30;99.90;;;;;;5092667;28;20442;-78
2021/06/21 11:23:41;;;;;;;1.90;0.80;;;20.40;99.90;;;;;;5082028;28;20554;-76
2021/06/21 11:26:07;;;;;;;0.70;0.50;;;20.50;99.90;;;;;;5090038;28;20512;-75
2021/06/21 11:28:41;;;;;;;0.70;0.50;;;20.60;99.90;;;;;;5085325;28;20493;-75
2021/06/21 11:31:22;;;;;;;0.70;0.50;;;20.60;99.90;;;;;;5075285;28;20209;-76
2021/06/21 11:33:59;;;;;;;0.70;0.50;;;20.50;99.90;;;;;;5072666;28;20420;-75
2021/06/21 11:36:45;;;;;;;0.70;0.60;;;20.50;99.90;;;;;;5072657;28;20420;-75
2021/06/21 11:39:24;;;;;;;0.70;0.50;;;20.40;99.90;;;;;;5082977;28;20817;-75
2021/06/21 11:42:05;;;;;;;0.70;0.50;;;20.30;99.90;;;;;;5078385;28;20427;-76
2021/06/21 11:44:37;;;;;;;0.70;0.60;;;20.30;99.90;;;;;;5079502;28;20486;-77
2021/06/21 11:47:15;;;;;;;0.70;0.60;;;20.20;99.90;;;;;;5088282;28;20444;-77
2021/06/21 11:49:45;;;;;;;1.00;0.60;;;20.20;99.90;;;;;;5072419;28;20994;-77
2021/06/21 11:52:15;;;;;;;0.70;0.50;;;20.20;99.90;;;;;;5073499;28;20823;-77
2021/06/21 11:54:44;;;;;;;0.70;0.50;;;20.10;99.90;;;;;;5086198;28;20511;-76
2021/06/21 11:57:10;;;;;;;0.70;0.50;;;20.00;99.90;;;;;;5073544;28;20544;-76
2021/06/21 11:59:49;;;;;;;0.70;0.50;;;19.90;99.90;;;;;;5084015;28;20428;-77
2021/06/21 12:02:25;;;;;;;0.70;0.50;;;19.90;99.90;;;;;;5074241;28;20423;-76
2021/06/21 12:04:54;;;;;;;0.80;0.60;;;19.80;99.90;;;;;;5090325;28;20423;-76
2021/06/21 12:07:32;;;;;;;0.80;0.60;;;19.70;99.90;;;;;;5088121;28;20534;-76
2021/06/21 12:10:00;;;;;;;0.70;0.50;;;19.50;99.90;;;;;;5088222;28;20836;-76
2021/06/21 12:12:36;;;;;;;0.70;0.50;;;19.50;99.90;;;;;;5076954;28;20466;-77
2021/06/21 12:15:07;;;;;;;0.70;0.50;;;19.50;99.90;;;;;;5091608;28;20418;-76
2021/06/21 12:17:33;;;;;;;0.70;0.50;;;19.50;99.90;;;;;;5086717;28;20447;-77
2021/06/21 12:20:09;;;;;;;0.70;0.60;;;19.60;99.90;;;;;;5070533;28;21024;-76
2021/06/21 12:22:37;;;;;;;0.70;0.60;;;19.60;99.90;;;;;;5091906;28;20434;-76
2021/06/21 12:25:21;;;;;;;0.70;0.60;;;19.70;99.90;;;;;;5090372;28;20428;-74
2021/06/21 12:27:47;;;;;;;0.70;0.50;;;19.60;99.90;;;;;;5071744;28;20460;-73
2021/06/21 12:30:13;;;;;;;0.70;0.50;;;19.60;99.90;;;;;;5072464;28;20456;-76
2021/06/21 12:32:40;;;;;;;0.70;0.50;;;19.60;99.90;;;;;;5084085;28;20317;-76
2021/06/21 12:35:08;;;;;;;0.70;0.50;;;19.60;99.90;;;;;;5074843;28;20435;-77
2021/06/21 12:37:39;;;;;;;0.70;0.60;;;19.60;99.90;;;;;;5078075;28;20448;-76
2021/06/21 12:40:17;;;;;;;0.70;0.53;;;19.70;99.90;;;;;;5079146;28;20504;-76
2021/06/21 12:42:44;;;;;;;0.70;0.50;;;19.70;99.90;;;;;;5071949;28;20987;-76
2021/06/21 12:45:14;;;;;;;0.80;0.77;;;19.70;99.90;;;;;;5087581;28;20427;-76
2021/06/21 12:47:48;;;;;;;1.00;0.90;;;19.50;99.90;;;;;;5072488;28;20452;-77
2021/06/21 12:50:16;;;;;;;0.80;0.60;;;19.50;99.90;;;;;;5073953;28;20571;-76
2021/06/21 12:52:44;;;;;;;0.90;0.80;;;19.40;99.90;;;;;;5083206;28;20463;-77
2021/06/21 12:55:11;;;;;;;0.80;0.67;;;19.40;99.90;;;;;;5071386;28;20432;-77
2021/06/21 12:57:56;;;;;;;0.80;0.60;;;19.30;99.90;;;;;;5071843;28;20460;-76